sensor_id;sensor_type;location;lat;lon;timestamp;pressure;altitude;pressure_sealevel;temperature;humidity
68889;BME280;55930;47.412;8.790;2023-07-29T00:01:36;94284.50;;;15.98;100.00
68889;BME280;55930;47.412;8.790;2023-07-29T00:04:57;94271.66;;;15.91;100.00
68889;BME280;55930;47.412;8.790;2023-07-29T00:08:17;94267.91;;;15.76;100.00
68889;BME280;55930;47.412;8.790;2023-07-29T00:11:37;94269.63;;;15.73;100.00
68889;BME280;55930;47.412;8.790;2023-07-29T00:15:00;94273.75;;;15.74;100.00
68889;BME280;55930;47.412;8.790;2023-07-29T00:18:21;94271.91;;;15.63;100.00
68889;BME280;55930;47.412;8.790;2023-07-29T00:21:41;94268.03;;;15.59;100.00
68889;BME280;55930;47.412;8.790;2023-07-29T00:25:01;94272.88;;;15.60;100.00
68889;BME280;55930;47.412;8.790;2023-07-29T00:28:22;94273.06;;;15.68;100.00
68889;BME280;55930;47.412;8.790;2023-07-29T00:31:42;94269.91;;;15.69;100.00
68889;BME280;55930;47.412;8.790;2023-07-29T00:35:02;94253.63;;;15.67;100.00
68889;BME280;55930;47.412;8.790;2023-07-29T00:38:23;94250.81;;;15.54;100.00
68889;BME280;55930;47.412;8.790;2023-07-29T00:41:43;94252.28;;;15.55;100.00
68889;BME280;55930;47.412;8.790;2023-07-29T00:45:06;94256.16;;;15.49;100.00
68889;BME280;55930;47.412;8.790;2023-07-29T00:48:27;94251.06;;;15.56;100.00
68889;BME280;55930;47.412;8.790;2023-07-29T00:51:48;94241.53;;;15.61;100.00
68889;BME280;55930;47.412;8.790;2023-07-29T00:55:08;94246.16;;;15.60;100.00
68889;BME280;55930;47.412;8.790;2023-07-29T00:58:28;94243.47;;;15.60;100.00
68889;BME280;55930;47.412;8.790;2023-07-29T01:01:49;94247.19;;;15.82;100.00
68889;BME280;55930;47.412;8.790;2023-07-29T01:05:11;94236.88;;;15.91;100.00
68889;BME280;55930;47.412;8.790;2023-07-29T01:08:46;94233.72;;;15.93;100.00
68889;BME280;55930;47.412;8.790;2023-07-29T01:16:14;94230.41;;;15.81;100.00
68889;BME280;55930;47.412;8.790;2023-07-29T01:20:01;94228.97;;;15.80;100.00
68889;BME280;55930;47.412;8.790;2023-07-29T01:22:55;94243.78;;;15.81;100.00
68889;BME280;55930;47.412;8.790;2023-07-29T01:26:17;94236.94;;;15.86;100.00
68889;BME280;55930;47.412;8.790;2023-07-29T01:29:38;94240.75;;;15.96;100.00
68889;BME280;55930;47.412;8.790;2023-07-29T01:33:20;94241.84;;;16.06;100.00
68889;BME280;55930;47.412;8.790;2023-07-29T01:36:39;94238.00;;;16.01;100.00
68889;BME280;55930;47.412;8.790;2023-07-29T01:40:01;94229.75;;;15.99;100.00
68889;BME280;55930;47.412;8.790;2023-07-29T01:43:21;94232.03;;;15.90;100.00
68889;BME280;55930;47.412;8.790;2023-07-29T01:46:44;94226.91;;;15.92;100.00
68889;BME280;55930;47.412;8.790;2023-07-29T01:50:04;94234.50;;;15.88;100.00
68889;BME280;55930;47.412;8.790;2023-07-29T01:53:24;94233.72;;;15.93;100.00
68889;BME280;55930;47.412;8.790;2023-07-29T01:56:45;94235.88;;;15.94;100.00
68889;BME280;55930;47.412;8.790;2023-07-29T02:00:08;94228.78;;;15.97;100.00
68889;BME280;55930;47.412;8.790;2023-07-29T02:03:28;94231.03;;;15.93;100.00
68889;BME280;55930;47.412;8.790;2023-07-29T02:06:49;94241.63;;;15.80;100.00
68889;BME280;55930;47.412;8.790;2023-07-29T02:10:09;94238.41;;;15.87;100.00
68889;BME280;55930;47.412;8.790;2023-07-29T02:13:29;94230.13;;;15.85;100.00
68889;BME280;55930;47.412;8.790;2023-07-29T02:16:49;94222.38;;;15.81;100.00
68889;BME280;55930;47.412;8.790;2023-07-29T02:20:13;94215.03;;;15.87;100.00
68889;BME280;55930;47.412;8.790;2023-07-29T02:23:33;94220.56;;;15.65;100.00
68889;BME280;55930;47.412;8.790;2023-07-29T02:26:53;94219.84;;;15.64;100.00
68889;BME280;55930;47.412;8.790;2023-07-29T02:30:14;94210.72;;;15.54;100.00
68889;BME280;55930;47.412;8.790;2023-07-29T02:33:34;94212.44;;;15.46;100.00
68889;BME280;55930;47.412;8.790;2023-07-29T02:36:55;94203.34;;;15.30;100.00
68889;BME280;55930;47.412;8.790;2023-07-29T02:40:15;94208.94;;;15.27;100.00
68889;BME280;55930;47.412;8.790;2023-07-29T02:43:36;94207.50;;;15.26;100.00
68889;BME280;55930;47.412;8.790;2023-07-29T02:46:56;94204.06;;;15.31;100.00
68889;BME280;55930;47.412;8.790;2023-07-29T02:50:16;94210.13;;;15.31;100.00
68889;BME280;55930;47.412;8.790;2023-07-29T02:53:37;94221.75;;;15.40;100.00
68889;BME280;55930;47.412;8.790;2023-07-29T02:56:57;94218.78;;;15.43;100.00
68889;BME280;55930;47.412;8.790;2023-07-29T03:00:17;94236.50;;;15.46;100.00
68889;BME280;55930;47.412;8.790;2023-07-29T03:03:39;94278.50;;;15.57;100.00
68889;BME280;55930;47.412;8.790;2023-07-29T03:07:01;94269.72;;;15.62;100.00
68889;BME280;55930;47.412;8.790;2023-07-29T03:10:21;94272.44;;;15.51;100.00
68889;BME280;55930;47.412;8.790;2023-07-29T03:13:42;94257.28;;;15.64;100.00
68889;BME280;55930;47.412;8.790;2023-07-29T03:17:03;94258.91;;;15.73;100.00
68889;BME280;55930;47.412;8.790;2023-07-29T03:20:26;94252.50;;;15.87;100.00
68889;BME280;55930;47.412;8.790;2023-07-29T03:23:46;94251.31;;;15.83;100.00
68889;BME280;55930;47.412;8.790;2023-07-29T03:27:06;94247.88;;;15.88;100.00
68889;BME280;55930;47.412;8.790;2023-07-29T03:30:29;94242.69;;;15.95;100.00
68889;BME280;55930;47.412;8.790;2023-07-29T03:33:49;94240.84;;;16.09;100.00
68889;BME280;55930;47.412;8.790;2023-07-29T03:37:10;94250.66;;;16.01;100.00
68889;BME280;55930;47.412;8.790;2023-07-29T03:40:30;94256.69;;;16.07;100.00
68889;BME280;55930;47.412;8.790;2023-07-29T03:43:50;94298.00;;;16.12;100.00
68889;BME280;55930;47.412;8.790;2023-07-29T03:47:10;94282.00;;;16.30;100.00
68889;BME280;55930;47.412;8.790;2023-07-29T03:50:33;94275.72;;;16.28;100.00
68889;BME280;55930;47.412;8.790;2023-07-29T03:53:55;94271.28;;;16.30;100.00
68889;BME280;55930;47.412;8.790;2023-07-29T03:57:15;94278.88;;;16.26;100.00
68889;BME280;55930;47.412;8.790;2023-07-29T04:00:35;94283.03;;;16.27;100.00
68889;BME280;55930;47.412;8.790;2023-07-29T04:03:56;94287.19;;;16.23;100.00
68889;BME280;55930;47.412;8.790;2023-07-29T04:07:16;94282.78;;;16.25;100.00
68889;BME280;55930;47.412;8.790;2023-07-29T04:10:39;94281.41;;;16.19;100.00
68889;BME280;55930;47.412;8.790;2023-07-29T04:13:59;94284.06;;;16.19;100.00
68889;BME280;55930;47.412;8.790;2023-07-29T04:17:19;94282.06;;;16.25;100.00
68889;BME280;55930;47.412;8.790;2023-07-29T04:20:39;94273.53;;;16.26;100.00
68889;BME280;55930;47.412;8.790;2023-07-29T04:24:00;94263.09;;;16.23;100.00
68889;BME280;55930;47.412;8.790;2023-07-29T04:27:21;94266.59;;;16.36;100.00
68889;BME280;55930;47.412;8.790;2023-07-29T04:30:41;94273.94;;;16.36;100.00
68889;BME280;55930;47.412;8.790;2023-07-29T04:34:02;94287.81;;;16.34;100.00
68889;BME280;55930;47.412;8.790;2023-07-29T04:37:22;94282.28;;;16.27;100.00
68889;BME280;55930;47.412;8.790;2023-07-29T04:40:42;94287.25;;;16.41;100.00
68889;BME280;55930;47.412;8.790;2023-07-29T04:44:03;94289.19;;;16.41;100.00
68889;BME280;55930;47.412;8.790;2023-07-29T04:47:25;94290.88;;;16.44;100.00
68889;BME280;55930;47.412;8.790;2023-07-29T04:50:46;94286.03;;;16.42;100.00
68889;BME280;55930;47.412;8.790;2023-07-29T04:54:06;94283.06;;;16.46;100.00
68889;BME280;55930;47.412;8.790;2023-07-29T04:57:26;94282.78;;;16.50;100.00
68889;BME280;55930;47.412;8.790;2023-07-29T05:00:47;94275.41;;;16.56;100.00
68889;BME280;55930;47.412;8.790;2023-07-29T05:04:07;94265.69;;;16.53;100.00
68889;BME280;55930;47.412;8.790;2023-07-29T05:07:27;94268.66;;;16.73;100.00
68889;BME280;55930;47.412;8.790;2023-07-29T05:10:51;94279.31;;;16.79;100.00
68889;BME280;55930;47.412;8.790;2023-07-29T05:14:13;94284.03;;;16.92;100.00
68889;BME280;55930;47.412;8.790;2023-07-29T05:17:33;94291.41;;;17.42;100.00
68889;BME280;55930;47.412;8.790;2023-07-29T05:20:53;94289.13;;;17.96;100.00
68889;BME280;55930;47.412;8.790;2023-07-29T05:24:14;94287.50;;;18.07;100.00
68889;BME280;55930;47.412;8.790;2023-07-29T05:27:34;94300.94;;;18.20;100.00
68889;BME280;55930;47.412;8.790;2023-07-29T05:30:54;94302.28;;;18.13;100.00
68889;BME280;55930;47.412;8.790;2023-07-29T05:34:14;94308.72;;;17.78;100.00
68889;BME280;55930;47.412;8.790;2023-07-29T05:37:35;94301.66;;;17.56;100.00
68889;BME280;55930;47.412;8.790;2023-07-29T05:40:55;94306.75;;;17.60;100.00
68889;BME280;55930;47.412;8.790;2023-07-29T05:44:18;94306.84;;;17.54;100.00
68889;BME280;55930;47.412;8.790;2023-07-29T05:47:39;94304.44;;;17.70;100.00
68889;BME280;55930;47.412;8.790;2023-07-29T05:51:02;94310.69;;;17.91;100.00
68889;BME280;55930;47.412;8.790;2023-07-29T05:54:22;94307.03;;;18.07;100.00
68889;BME280;55930;47.412;8.790;2023-07-29T05:57:42;94311.28;;;18.16;100.00
68889;BME280;55930;47.412;8.790;2023-07-29T06:01:03;94305.91;;;18.16;100.00
68889;BME280;55930;47.412;8.790;2023-07-29T06:04:23;94306.75;;;18.37;100.00
68889;BME280;55930;47.412;8.790;2023-07-29T06:07:43;94317.66;;;18.71;100.00
68889;BME280;55930;47.412;8.790;2023-07-29T06:11:04;94320.00;;;19.01;100.00
68889;BME280;55930;47.412;8.790;2023-07-29T06:14:26;94321.78;;;18.98;100.00
68889;BME280;55930;47.412;8.790;2023-07-29T06:17:46;94319.84;;;19.67;100.00
68889;BME280;55930;47.412;8.790;2023-07-29T06:21:06;94317.97;;;19.75;100.00
68889;BME280;55930;47.412;8.790;2023-07-29T06:24:27;94327.88;;;19.46;100.00
68889;BME280;55930;47.412;8.790;2023-07-29T06:27:48;94321.59;;;19.77;100.00
68889;BME280;55930;47.412;8.790;2023-07-29T06:31:08;94317.38;;;19.69;100.00
68889;BME280;55930;47.412;8.790;2023-07-29T06:34:28;94323.28;;;19.67;100.00
68889;BME280;55930;47.412;8.790;2023-07-29T06:37:51;94327.72;;;19.65;100.00
68889;BME280;55930;47.412;8.790;2023-07-29T06:41:11;94329.25;;;19.73;100.00
68889;BME280;55930;47.412;8.790;2023-07-29T06:44:32;94321.50;;;20.11;100.00
68889;BME280;55930;47.412;8.790;2023-07-29T06:47:52;94322.56;;;19.87;100.00
68889;BME280;55930;47.412;8.790;2023-07-29T06:51:12;94326.63;;;20.43;100.00
68889;BME280;55930;47.412;8.790;2023-07-29T06:54:33;94322.09;;;20.38;100.00
68889;BME280;55930;47.412;8.790;2023-07-29T06:57:53;94321.34;;;20.09;100.00
68889;BME280;55930;47.412;8.790;2023-07-29T07:01:16;94330.66;;;20.08;100.00
68889;BME280;55930;47.412;8.790;2023-07-29T07:04:36;94324.81;;;20.17;100.00
68889;BME280;55930;47.412;8.790;2023-07-29T07:07:56;94321.19;;;20.15;100.00
68889;BME280;55930;47.412;8.790;2023-07-29T07:11:19;94320.03;;;20.80;100.00
68889;BME280;55930;47.412;8.790;2023-07-29T07:14:40;94313.91;;;21.16;100.00
68889;BME280;55930;47.412;8.790;2023-07-29T07:18:03;94316.44;;;21.80;100.00
68889;BME280;55930;47.412;8.790;2023-07-29T07:21:23;94309.44;;;22.76;100.00
68889;BME280;55930;47.412;8.790;2023-07-29T07:24:46;94309.31;;;22.21;100.00
68889;BME280;55930;47.412;8.790;2023-07-29T07:28:06;94294.47;;;22.90;100.00
68889;BME280;55930;47.412;8.790;2023-07-29T07:31:26;94306.59;;;22.13;100.00
68889;BME280;55930;47.412;8.790;2023-07-29T07:34:47;94307.81;;;22.80;100.00
68889;BME280;55930;47.412;8.790;2023-07-29T07:38:07;94296.72;;;23.09;100.00
68889;BME280;55930;47.412;8.790;2023-07-29T07:41:29;94298.78;;;22.70;100.00
68889;BME280;55930;47.412;8.790;2023-07-29T07:44:49;94300.34;;;24.09;100.00
68889;BME280;55930;47.412;8.790;2023-07-29T07:48:10;94294.59;;;24.04;100.00
68889;BME280;55930;47.412;8.790;2023-07-29T07:51:33;94291.38;;;23.98;100.00
68889;BME280;55930;47.412;8.790;2023-07-29T07:54:53;94291.44;;;24.16;100.00
68889;BME280;55930;47.412;8.790;2023-07-29T07:58:16;94286.81;;;24.68;100.00
68889;BME280;55930;47.412;8.790;2023-07-29T08:01:36;94279.16;;;25.08;100.00
68889;BME280;55930;47.412;8.790;2023-07-29T08:04:57;94283.03;;;24.29;100.00
68889;BME280;55930;47.412;8.790;2023-07-29T08:08:17;94282.03;;;24.42;100.00
68889;BME280;55930;47.412;8.790;2023-07-29T08:11:37;94291.84;;;24.54;100.00
68889;BME280;55930;47.412;8.790;2023-07-29T08:14:58;94285.09;;;24.80;100.00
68889;BME280;55930;47.412;8.790;2023-07-29T08:18:18;94283.22;;;24.48;100.00
68889;BME280;55930;47.412;8.790;2023-07-29T08:21:38;94288.28;;;26.01;100.00
68889;BME280;55930;47.412;8.790;2023-07-29T08:24:59;94294.44;;;25.48;100.00
68889;BME280;55930;47.412;8.790;2023-07-29T08:28:19;94290.13;;;25.45;100.00
68889;BME280;55930;47.412;8.790;2023-07-29T08:31:41;94287.19;;;26.23;100.00
68889;BME280;55930;47.412;8.790;2023-07-29T08:35:02;94287.03;;;26.87;100.00
68889;BME280;55930;47.412;8.790;2023-07-29T08:38:22;94276.78;;;27.74;100.00
68889;BME280;55930;47.412;8.790;2023-07-29T08:42:02;94287.97;;;26.34;100.00
68889;BME280;55930;47.412;8.790;2023-07-29T08:45:26;94294.19;;;25.80;100.00
68889;BME280;55930;47.412;8.790;2023-07-29T08:48:47;94290.50;;;26.97;100.00
68889;BME280;55930;47.412;8.790;2023-07-29T08:52:08;94288.16;;;26.84;100.00
68889;BME280;55930;47.412;8.790;2023-07-29T08:55:29;94286.16;;;26.84;100.00
68889;BME280;55930;47.412;8.790;2023-07-29T08:58:49;94299.34;;;26.78;100.00
68889;BME280;55930;47.412;8.790;2023-07-29T09:02:10;94303.94;;;28.65;95.71
68889;BME280;55930;47.412;8.790;2023-07-29T09:05:30;94303.19;;;29.61;85.90
68889;BME280;55930;47.412;8.790;2023-07-29T09:08:50;94304.31;;;28.49;90.76
68889;BME280;55930;47.412;8.790;2023-07-29T09:12:11;94294.13;;;30.87;64.56
68889;BME280;55930;47.412;8.790;2023-07-29T09:15:33;94295.50;;;31.11;61.08
68889;BME280;55930;47.412;8.790;2023-07-29T09:18:53;94287.78;;;30.24;61.46
68889;BME280;55930;47.412;8.790;2023-07-29T09:22:18;94287.69;;;29.98;62.67
68889;BME280;55930;47.412;8.790;2023-07-29T09:25:41;94290.63;;;30.98;57.79
68889;BME280;55930;47.412;8.790;2023-07-29T09:29:06;94281.31;;;29.61;61.69
68889;BME280;55930;47.412;8.790;2023-07-29T09:32:27;94286.22;;;28.66;67.61
68889;BME280;55930;47.412;8.790;2023-07-29T09:35:47;94276.97;;;27.57;69.15
68889;BME280;55930;47.412;8.790;2023-07-29T09:39:10;94283.50;;;27.73;74.04
68889;BME280;55930;47.412;8.790;2023-07-29T09:42:31;94281.75;;;31.73;55.45
68889;BME280;55930;47.412;8.790;2023-07-29T09:45:52;94281.75;;;31.48;57.44
68889;BME280;55930;47.412;8.790;2023-07-29T09:49:12;94281.16;;;33.57;50.64
68889;BME280;55930;47.412;8.790;2023-07-29T09:52:32;94286.31;;;31.69;53.35
68889;BME280;55930;47.412;8.790;2023-07-29T09:55:53;94274.81;;;31.72;55.21
68889;BME280;55930;47.412;8.790;2023-07-29T09:59:13;94283.97;;;29.38;60.07
68889;BME280;55930;47.412;8.790;2023-07-29T10:02:33;94276.84;;;28.26;64.92
68889;BME280;55930;47.412;8.790;2023-07-29T10:05:53;94283.34;;;28.21;64.64
68889;BME280;55930;47.412;8.790;2023-07-29T10:09:14;94278.44;;;29.71;58.85
68889;BME280;55930;47.412;8.790;2023-07-29T10:12:35;94272.91;;;30.38;57.37
68889;BME280;55930;47.412;8.790;2023-07-29T10:15:55;94268.44;;;31.05;56.37
68889;BME280;55930;47.412;8.790;2023-07-29T10:19:16;94272.50;;;31.80;52.49
68889;BME280;55930;47.412;8.790;2023-07-29T10:22:39;94274.38;;;33.44;53.73
68889;BME280;55930;47.412;8.790;2023-07-29T10:26:03;94275.47;;;31.84;52.75
68889;BME280;55930;47.412;8.790;2023-07-29T10:29:24;94267.78;;;30.56;53.59
68889;BME280;55930;47.412;8.790;2023-07-29T10:32:48;94271.97;;;30.83;52.94
68889;BME280;55930;47.412;8.790;2023-07-29T10:36:09;94261.53;;;31.80;52.28
68889;BME280;55930;47.412;8.790;2023-07-29T10:39:40;94251.91;;;32.20;49.74
68889;BME280;55930;47.412;8.790;2023-07-29T10:43:10;94258.47;;;30.61;55.15
68889;BME280;55930;47.412;8.790;2023-07-29T10:46:34;94253.00;;;30.61;52.06
68889;BME280;55930;47.412;8.790;2023-07-29T10:49:56;94249.09;;;32.32;46.57
68889;BME280;55930;47.412;8.790;2023-07-29T10:53:16;94255.84;;;31.76;49.65
68889;BME280;55930;47.412;8.790;2023-07-29T10:56:39;94251.72;;;28.91;53.75
68889;BME280;55930;47.412;8.790;2023-07-29T11:00:00;94240.78;;;29.81;52.11
68889;BME280;55930;47.412;8.790;2023-07-29T11:03:21;94250.56;;;28.52;56.70
68889;BME280;55930;47.412;8.790;2023-07-29T11:10:22;94229.72;;;27.04;62.09
68889;BME280;55930;47.412;8.790;2023-07-29T11:13:43;94232.72;;;27.08;61.87
68889;BME280;55930;47.412;8.790;2023-07-29T11:17:04;94239.59;;;26.61;64.93
68889;BME280;55930;47.412;8.790;2023-07-29T11:20:25;94234.91;;;26.06;67.13
68889;BME280;55930;47.412;8.790;2023-07-29T11:23:48;94222.47;;;25.66;68.42
68889;BME280;55930;47.412;8.790;2023-07-29T11:27:12;94223.19;;;25.40;71.18
68889;BME280;55930;47.412;8.790;2023-07-29T11:30:32;94231.63;;;24.73;76.47
68889;BME280;55930;47.412;8.790;2023-07-29T11:33:53;94226.44;;;24.50;82.02
68889;BME280;55930;47.412;8.790;2023-07-29T11:37:13;94226.56;;;24.35;92.13
68889;BME280;55930;47.412;8.790;2023-07-29T11:40:34;94234.41;;;24.06;90.57
68889;BME280;55930;47.412;8.790;2023-07-29T11:43:54;94236.28;;;23.39;100.00
68889;BME280;55930;47.412;8.790;2023-07-29T11:47:14;94269.41;;;22.82;100.00
68889;BME280;55930;47.412;8.790;2023-07-29T11:50:35;94277.38;;;21.96;100.00
68889;BME280;55930;47.412;8.790;2023-07-29T11:53:55;94286.31;;;21.38;100.00
68889;BME280;55930;47.412;8.790;2023-07-29T11:57:16;94266.75;;;21.09;100.00
68889;BME280;55930;47.412;8.790;2023-07-29T12:00:37;94273.59;;;21.69;100.00
68889;BME280;55930;47.412;8.790;2023-07-29T12:03:58;94251.13;;;21.97;100.00
68889;BME280;55930;47.412;8.790;2023-07-29T12:07:18;94256.09;;;23.16;100.00
68889;BME280;55930;47.412;8.790;2023-07-29T12:10:39;94258.25;;;23.18;100.00
68889;BME280;55930;47.412;8.790;2023-07-29T12:13:59;94264.34;;;22.71;100.00
68889;BME280;55930;47.412;8.790;2023-07-29T12:17:20;94281.66;;;22.91;100.00
68889;BME280;55930;47.412;8.790;2023-07-29T12:20:42;94286.72;;;22.79;100.00
68889;BME280;55930;47.412;8.790;2023-07-29T12:24:03;94280.59;;;22.63;100.00
68889;BME280;55930;47.412;8.790;2023-07-29T12:27:23;94273.84;;;22.09;100.00
68889;BME280;55930;47.412;8.790;2023-07-29T12:30:44;94281.53;;;21.90;100.00
68889;BME280;55930;47.412;8.790;2023-07-29T12:34:04;94285.66;;;21.60;100.00
68889;BME280;55930;47.412;8.790;2023-07-29T12:37:31;94283.25;;;21.42;100.00
68889;BME280;55930;47.412;8.790;2023-07-29T12:40:52;94279.66;;;20.95;100.00
68889;BME280;55930;47.412;8.790;2023-07-29T12:44:12;94290.97;;;20.58;100.00
68889;BME280;55930;47.412;8.790;2023-07-29T12:47:32;94291.31;;;20.54;100.00
68889;BME280;55930;47.412;8.790;2023-07-29T12:50:53;94298.81;;;20.48;100.00
68889;BME280;55930;47.412;8.790;2023-07-29T12:54:13;94296.28;;;20.43;100.00
68889;BME280;55930;47.412;8.790;2023-07-29T12:57:33;94269.34;;;20.79;100.00
68889;BME280;55930;47.412;8.790;2023-07-29T13:00:54;94283.53;;;20.79;100.00
68889;BME280;55930;47.412;8.790;2023-07-29T13:04:14;94328.41;;;20.41;100.00
68889;BME280;55930;47.412;8.790;2023-07-29T13:07:34;94399.06;;;19.71;100.00
68889;BME280;55930;47.412;8.790;2023-07-29T13:10:55;94363.66;;;18.67;100.00
68889;BME280;55930;47.412;8.790;2023-07-29T13:14:15;94349.56;;;18.61;100.00
68889;BME280;55930;47.412;8.790;2023-07-29T13:17:35;94358.38;;;18.30;100.00
68889;BME280;55930;47.412;8.790;2023-07-29T13:20:57;94353.13;;;18.38;100.00
68889;BME280;55930;47.412;8.790;2023-07-29T13:24:17;94349.19;;;18.25;100.00
68889;BME280;55930;47.412;8.790;2023-07-29T13:27:38;94341.88;;;18.39;100.00
68889;BME280;55930;47.412;8.790;2023-07-29T13:30:58;94350.56;;;18.45;100.00
68889;BME280;55930;47.412;8.790;2023-07-29T13:34:21;94350.78;;;18.47;100.00
68889;BME280;55930;47.412;8.790;2023-07-29T13:37:41;94358.19;;;18.99;100.00
68889;BME280;55930;47.412;8.790;2023-07-29T13:41:02;94363.84;;;18.96;100.00
68889;BME280;55930;47.412;8.790;2023-07-29T13:44:22;94358.28;;;18.81;100.00
68889;BME280;55930;47.412;8.790;2023-07-29T13:47:45;94353.91;;;19.30;100.00
68889;BME280;55930;47.412;8.790;2023-07-29T13:51:05;94357.53;;;19.20;100.00
68889;BME280;55930;47.412;8.790;2023-07-29T13:54:26;94360.75;;;19.65;100.00
68889;BME280;55930;47.412;8.790;2023-07-29T13:57:48;94354.19;;;19.74;100.00
68889;BME280;55930;47.412;8.790;2023-07-29T14:01:08;94365.38;;;20.61;100.00
68889;BME280;55930;47.412;8.790;2023-07-29T14:04:29;94367.97;;;20.25;100.00
68889;BME280;55930;47.412;8.790;2023-07-29T14:07:50;94379.41;;;20.18;100.00
68889;BME280;55930;47.412;8.790;2023-07-29T14:11:10;94383.66;;;20.13;100.00
68889;BME280;55930;47.412;8.790;2023-07-29T14:14:30;94370.63;;;19.83;100.00
68889;BME280;55930;47.412;8.790;2023-07-29T14:17:51;94377.31;;;20.03;100.00
68889;BME280;55930;47.412;8.790;2023-07-29T14:21:11;94386.41;;;20.00;100.00
68889;BME280;55930;47.412;8.790;2023-07-29T14:24:31;94390.56;;;19.67;100.00
68889;BME280;55930;47.412;8.790;2023-07-29T14:27:54;94396.94;;;19.30;100.00
68889;BME280;55930;47.412;8.790;2023-07-29T14:31:14;94397.84;;;19.46;100.00
68889;BME280;55930;47.412;8.790;2023-07-29T14:34:36;94396.50;;;19.39;100.00
68889;BME280;55930;47.412;8.790;2023-07-29T14:37:57;94397.88;;;19.06;100.00
68889;BME280;55930;47.412;8.790;2023-07-29T14:41:17;94398.59;;;19.07;100.00
68889;BME280;55930;47.412;8.790;2023-07-29T14:44:40;94399.91;;;19.40;100.00
68889;BME280;55930;47.412;8.790;2023-07-29T14:48:01;94403.53;;;19.56;100.00
68889;BME280;55930;47.412;8.790;2023-07-29T14:51:21;94412.44;;;19.51;100.00
68889;BME280;55930;47.412;8.790;2023-07-29T14:54:42;94403.25;;;19.80;100.00
68889;BME280;55930;47.412;8.790;2023-07-29T14:58:03;94406.75;;;19.54;100.00
68889;BME280;55930;47.412;8.790;2023-07-29T15:01:23;94418.84;;;19.47;100.00
68889;BME280;55930;47.412;8.790;2023-07-29T15:04:43;94414.81;;;19.88;100.00
68889;BME280;55930;47.412;8.790;2023-07-29T15:08:04;94420.22;;;19.88;100.00
68889;BME280;55930;47.412;8.790;2023-07-29T15:11:24;94413.41;;;19.74;100.00
68889;BME280;55930;47.412;8.790;2023-07-29T15:14:44;94413.59;;;19.55;100.00
68889;BME280;55930;47.412;8.790;2023-07-29T15:18:04;94401.03;;;19.44;100.00
68889;BME280;55930;47.412;8.790;2023-07-29T15:21:25;94395.78;;;19.52;100.00
68889;BME280;55930;47.412;8.790;2023-07-29T15:24:45;94399.31;;;19.47;100.00
68889;BME280;55930;47.412;8.790;2023-07-29T15:28:06;94395.69;;;19.31;100.00
68889;BME280;55930;47.412;8.790;2023-07-29T15:31:26;94391.84;;;19.53;100.00
68889;BME280;55930;47.412;8.790;2023-07-29T15:34:47;94387.81;;;19.46;100.00
68889;BME280;55930;47.412;8.790;2023-07-29T15:38:08;94388.44;;;19.39;100.00
68889;BME280;55930;47.412;8.790;2023-07-29T15:41:31;94391.13;;;19.26;100.00
68889;BME280;55930;47.412;8.790;2023-07-29T15:44:51;94395.91;;;19.20;100.00
68889;BME280;55930;47.412;8.790;2023-07-29T15:48:11;94394.34;;;19.38;100.00
68889;BME280;55930;47.412;8.790;2023-07-29T15:51:32;94390.72;;;19.22;100.00
68889;BME280;55930;47.412;8.790;2023-07-29T15:54:55;94391.38;;;19.15;100.00
68889;BME280;55930;47.412;8.790;2023-07-29T15:58:15;94384.81;;;19.24;100.00
68889;BME280;55930;47.412;8.790;2023-07-29T16:01:35;94379.94;;;19.48;100.00
68889;BME280;55930;47.412;8.790;2023-07-29T16:04:55;94380.56;;;19.55;100.00
68889;BME280;55930;47.412;8.790;2023-07-29T16:08:16;94386.25;;;19.51;100.00
68889;BME280;55930;47.412;8.790;2023-07-29T16:11:36;94384.53;;;19.01;100.00
68889;BME280;55930;47.412;8.790;2023-07-29T16:14:56;94385.16;;;19.07;100.00
68889;BME280;55930;47.412;8.790;2023-07-29T16:18:16;94381.31;;;19.29;100.00
68889;BME280;55930;47.412;8.790;2023-07-29T16:21:37;94373.78;;;19.14;100.00
68889;BME280;55930;47.412;8.790;2023-07-29T16:24:57;94374.81;;;18.98;100.00
68889;BME280;55930;47.412;8.790;2023-07-29T16:28:17;94372.22;;;18.92;100.00
68889;BME280;55930;47.412;8.790;2023-07-29T16:31:38;94365.81;;;18.95;100.00
68889;BME280;55930;47.412;8.790;2023-07-29T16:34:58;94356.94;;;18.74;100.00
68889;BME280;55930;47.412;8.790;2023-07-29T16:38:18;94369.84;;;18.89;100.00
68889;BME280;55930;47.412;8.790;2023-07-29T16:41:39;94355.06;;;18.69;100.00
68889;BME280;55930;47.412;8.790;2023-07-29T16:44:59;94361.38;;;18.71;100.00
68889;BME280;55930;47.412;8.790;2023-07-29T16:48:20;94368.19;;;18.59;100.00
68889;BME280;55930;47.412;8.790;2023-07-29T16:51:40;94374.19;;;18.65;100.00
68889;BME280;55930;47.412;8.790;2023-07-29T16:55:00;94363.09;;;18.56;100.00
68889;BME280;55930;47.412;8.790;2023-07-29T16:58:21;94364.97;;;18.61;100.00
68889;BME280;55930;47.412;8.790;2023-07-29T17:01:41;94360.50;;;18.50;100.00
68889;BME280;55930;47.412;8.790;2023-07-29T17:05:02;94381.16;;;18.55;100.00
68889;BME280;55930;47.412;8.790;2023-07-29T17:08:24;94377.50;;;18.71;100.00
68889;BME280;55930;47.412;8.790;2023-07-29T17:11:44;94371.66;;;18.54;100.00
68889;BME280;55930;47.412;8.790;2023-07-29T17:15:04;94369.47;;;18.53;100.00
68889;BME280;55930;47.412;8.790;2023-07-29T17:18:28;94375.78;;;18.55;100.00
68889;BME280;55930;47.412;8.790;2023-07-29T17:21:48;94375.56;;;18.40;100.00
68889;BME280;55930;47.412;8.790;2023-07-29T17:25:08;94373.91;;;18.37;100.00
68889;BME280;55930;47.412;8.790;2023-07-29T17:28:28;94381.94;;;18.24;100.00
68889;BME280;55930;47.412;8.790;2023-07-29T17:31:49;94381.31;;;18.31;100.00
68889;BME280;55930;47.412;8.790;2023-07-29T17:35:09;94386.31;;;18.08;100.00
68889;BME280;55930;47.412;8.790;2023-07-29T17:38:29;94385.00;;;18.15;100.00
68889;BME280;55930;47.412;8.790;2023-07-29T17:41:49;94389.38;;;17.99;100.00